createdAt,value
2023-03-13T00:01:27.906Z,99.90
2023-03-13T00:03:55.652Z,99.90
2023-03-13T00:06:25.716Z,99.90
2023-03-13T00:08:52.863Z,99.90
2023-03-13T00:11:20.017Z,99.90
2023-03-13T00:13:46.975Z,99.90
2023-03-13T00:16:16.869Z,99.90
2023-03-13T00:18:48.578Z,99.90
2023-03-13T00:21:16.667Z,99.90
2023-03-13T00:23:43.663Z,99.90
2023-03-13T00:26:13.395Z,99.90
2023-03-13T00:28:41.342Z,99.90
2023-03-13T00:31:16.138Z,99.90
2023-03-13T00:33:45.558Z,99.90
2023-03-13T00:36:23.909Z,99.90
2023-03-13T00:38:51.951Z,99.90
2023-03-13T00:41:31.241Z,99.90
2023-03-13T00:43:58.683Z,99.90
2023-03-13T00:46:28.907Z,99.90
2023-03-13T00:48:56.584Z,99.90
2023-03-13T00:51:27.265Z,99.90
2023-03-13T00:53:56.123Z,99.90
2023-03-13T00:56:23.185Z,99.90
2023-03-13T00:58:51.170Z,99.90
2023-03-13T01:01:22.820Z,99.90
2023-03-13T01:03:54.507Z,99.90
2023-03-13T01:06:27.359Z,99.90
2023-03-13T01:08:58.692Z,99.90
2023-03-13T01:11:30.088Z,99.90
2023-03-13T01:14:03.460Z,99.90
2023-03-13T01:16:32.459Z,99.90
2023-03-13T01:19:01.468Z,99.90
2023-03-13T01:21:29.628Z,99.90
2023-03-13T01:23:57.993Z,99.90
2023-03-13T01:26:25.366Z,99.90
2023-03-13T01:28:54.412Z,99.90
2023-03-13T01:31:22.938Z,99.90
2023-03-13T01:33:52.133Z,99.90
2023-03-13T01:36:19.393Z,99.90
2023-03-13T01:38:55.354Z,99.90
2023-03-13T01:41:24.522Z,99.90
2023-03-13T01:43:51.927Z,99.90
2023-03-13T01:46:37.271Z,99.90
2023-03-13T01:49:11.794Z,99.90
2023-03-13T01:51:59.632Z,99.90
2023-03-13T01:54:48.021Z,99.90
2023-03-13T01:57:27.004Z,99.90
2023-03-13T02:00:02.253Z,99.90
2023-03-13T02:02:47.230Z,99.90
2023-03-13T02:05:17.246Z,99.90
2023-03-13T02:07:53.777Z,99.90
2023-03-13T02:14:59.761Z,99.90
2023-03-13T02:17:27.665Z,99.90
2023-03-13T02:19:54.811Z,99.90
2023-03-13T02:22:40.673Z,99.90
2023-03-13T02:29:37.746Z,99.90
2023-03-13T02:32:05.616Z,99.90
2023-03-13T02:34:35.658Z,99.90
2023-03-13T02:37:05.790Z,99.90
2023-03-13T02:39:34.451Z,99.90
2023-03-13T02:46:27.978Z,99.90
2023-03-13T02:48:57.173Z,99.90
2023-03-13T02:51:30.741Z,99.90
2023-03-13T02:54:08.946Z,99.90
2023-03-13T03:01:08.043Z,99.90
2023-03-13T03:03:38.287Z,99.90
2023-03-13T03:06:06.564Z,99.90
2023-03-13T03:08:34.886Z,99.90
2023-03-13T03:15:29.627Z,99.90
2023-03-13T03:17:56.756Z,99.90
2023-03-13T03:20:23.791Z,99.90
2023-03-13T03:22:50.806Z,99.90
2023-03-13T03:25:17.876Z,99.90
2023-03-13T03:32:23.855Z,99.90
2023-03-13T03:34:51.076Z,99.90
2023-03-13T03:37:19.078Z,99.90
2023-03-13T03:39:46.267Z,99.90
2023-03-13T03:46:39.573Z,99.90
2023-03-13T03:49:06.819Z,99.90
2023-03-13T03:51:34.142Z,99.90
2023-03-13T03:54:01.424Z,99.90
2023-03-13T03:56:31.458Z,99.90
2023-03-13T03:59:00.309Z,99.90
2023-03-13T04:01:46.396Z,99.90
2023-03-13T04:04:16.480Z,99.90
2023-03-13T04:06:47.101Z,99.90
2023-03-13T04:09:14.307Z,99.90
2023-03-13T04:11:42.341Z,99.90
2023-03-13T04:14:11.071Z,99.90
2023-03-13T04:16:38.344Z,99.90
2023-03-13T04:19:05.409Z,99.90
2023-03-13T04:21:33.401Z,99.90
2023-03-13T04:24:05.207Z,99.90
2023-03-13T04:26:34.195Z,99.90
2023-03-13T04:29:01.823Z,99.90
2023-03-13T04:31:49.238Z,99.90
2023-03-13T04:34:30.297Z,99.90
2023-03-13T04:37:26.757Z,99.90
2023-03-13T04:40:14.090Z,99.90
2023-03-13T04:42:53.458Z,99.90
2023-03-13T04:45:39.341Z,99.90
2023-03-13T04:48:22.523Z,99.90
2023-03-13T04:51:12.553Z,99.90
2023-03-13T04:53:59.815Z,99.90
2023-03-13T04:57:05.385Z,99.90
2023-03-13T04:59:40.326Z,99.90
2023-03-13T05:02:16.336Z,99.90
2023-03-13T05:05:02.047Z,99.90
2023-03-13T05:07:49.306Z,99.90
2023-03-13T05:10:30.736Z,99.90
2023-03-13T05:13:10.076Z,99.90
2023-03-13T05:15:57.461Z,99.90
2023-03-13T05:18:43.428Z,99.90
2023-03-13T05:21:37.079Z,99.90
2023-03-13T05:24:24.381Z,99.90
2023-03-13T05:31:39.552Z,99.90
2023-03-13T05:34:32.696Z,99.90
2023-03-13T05:37:22.942Z,99.90
2023-03-13T05:39:57.478Z,99.90
2023-03-13T05:47:13.676Z,99.90
2023-03-13T05:49:59.246Z,99.90
2023-03-13T05:52:29.270Z,99.90
2023-03-13T05:55:22.568Z,99.90
2023-03-13T06:02:37.508Z,99.90
2023-03-13T06:05:06.648Z,99.90
2023-03-13T06:07:34.097Z,99.90
2023-03-13T06:10:01.364Z,99.90
2023-03-13T06:17:12.894Z,99.90
2023-03-13T06:19:40.205Z,99.90
2023-03-13T06:22:07.317Z,99.90
2023-03-13T06:24:34.528Z,99.90
2023-03-13T06:27:01.671Z,99.90
2023-03-13T06:29:28.696Z,99.90
2023-03-13T06:31:55.907Z,99.90
2023-03-13T06:34:23.265Z,99.90
2023-03-13T06:36:50.338Z,99.90
2023-03-13T06:39:17.348Z,99.90
2023-03-13T06:41:44.587Z,99.90
2023-03-13T06:44:11.813Z,99.90
2023-03-13T06:46:38.866Z,99.90
2023-03-13T06:49:06.047Z,99.90
2023-03-13T06:51:33.457Z,99.90
2023-03-13T06:54:03.195Z,99.90
2023-03-13T06:56:30.334Z,99.90
2023-03-13T06:58:59.517Z,99.90
2023-03-13T07:01:27.431Z,99.90
2023-03-13T07:03:54.553Z,99.90
2023-03-13T07:06:21.637Z,99.90
2023-03-13T07:08:48.755Z,99.90
2023-03-13T07:11:16.641Z,99.90
2023-03-13T07:13:43.665Z,99.90
2023-03-13T07:16:13.457Z,99.90
2023-03-13T07:18:47.419Z,99.90
2023-03-13T07:21:14.826Z,99.90
2023-03-13T07:23:41.918Z,99.90
2023-03-13T07:26:12.873Z,99.90
2023-03-13T07:28:40.107Z,99.90
2023-03-13T07:31:13.212Z,99.90
2023-03-13T07:33:40.571Z,99.90
2023-03-13T07:36:08.743Z,99.90
2023-03-13T07:38:35.775Z,99.90
2023-03-13T07:41:03.158Z,99.90
2023-03-13T07:43:31.553Z,99.90
2023-03-13T07:46:01.243Z,99.90
2023-03-13T07:48:37.210Z,99.90
2023-03-13T07:51:06.440Z,99.90
2023-03-13T07:53:33.888Z,99.90
2023-03-13T07:56:04.048Z,99.90
2023-03-13T07:58:33.709Z,99.90
2023-03-13T08:01:01.233Z,99.90
2023-03-13T08:03:29.355Z,99.90
2023-03-13T08:06:11.143Z,99.90
2023-03-13T08:08:39.094Z,99.90
2023-03-13T08:11:10.695Z,99.90
2023-03-13T08:13:38.821Z,99.90
2023-03-13T08:16:16.312Z,99.90
2023-03-13T08:18:49.025Z,99.90
2023-03-13T08:21:28.312Z,99.90
2023-03-13T08:23:57.885Z,99.90
2023-03-13T08:26:27.461Z,99.90
2023-03-13T08:28:57.318Z,99.90
2023-03-13T08:31:28.313Z,99.90
2023-03-13T08:33:55.453Z,99.90
2023-03-13T08:36:25.450Z,99.90
2023-03-13T08:38:54.618Z,99.90
2023-03-13T08:41:24.572Z,99.90
2023-03-13T08:43:55.976Z,99.90
2023-03-13T08:46:23.455Z,99.90
2023-03-13T08:48:51.990Z,99.90
2023-03-13T08:51:20.694Z,99.90
2023-03-13T08:53:48.011Z,99.90
2023-03-13T08:56:18.891Z,99.90
2023-03-13T08:58:50.717Z,99.90
2023-03-13T09:01:18.419Z,99.90
2023-03-13T09:03:45.615Z,99.90
2023-03-13T09:06:12.878Z,99.90
2023-03-13T09:08:41.068Z,99.90
2023-03-13T09:11:11.028Z,99.90
2023-03-13T09:13:41.674Z,99.90
2023-03-13T09:16:17.115Z,99.90
2023-03-13T09:18:44.797Z,99.90
2023-03-13T09:21:21.190Z,99.90
2023-03-13T09:23:48.611Z,99.90
2023-03-13T09:26:17.476Z,99.90
2023-03-13T09:28:45.159Z,99.90
2023-03-13T09:31:15.384Z,99.90
2023-03-13T09:33:43.918Z,99.90
2023-03-13T09:36:11.606Z,99.90
2023-03-13T09:38:39.462Z,99.90
2023-03-13T09:41:21.279Z,99.90
2023-03-13T09:44:02.609Z,99.90
2023-03-13T09:46:54.151Z,99.90
2023-03-13T09:49:27.476Z,99.90
2023-03-13T09:52:05.387Z,98.70
2023-03-13T09:54:40.046Z,99.90
2023-03-13T09:57:15.792Z,99.90
2023-03-13T09:59:52.771Z,99.90
2023-03-13T10:02:30.051Z,98.50
2023-03-13T10:05:02.754Z,99.90
2023-03-13T10:07:30.030Z,98.60
2023-03-13T10:09:57.168Z,94.10
2023-03-13T10:12:28.369Z,95.50
2023-03-13T10:15:20.310Z,96.30
2023-03-13T10:17:47.612Z,90.60
2023-03-13T10:20:44.278Z,91.50
2023-03-13T10:23:19.788Z,90.60
2023-03-13T10:25:47.044Z,85.40
2023-03-13T10:28:16.492Z,89.20
2023-03-13T10:30:48.261Z,77.50
2023-03-13T10:33:23.502Z,79.10
2023-03-13T10:36:00.993Z,82.00
2023-03-13T10:38:28.208Z,79.90
2023-03-13T10:41:05.570Z,82.20
2023-03-13T10:43:32.632Z,88.60
2023-03-13T10:45:59.674Z,81.60
2023-03-13T10:48:35.963Z,79.20
2023-03-13T10:51:03.023Z,76.70
2023-03-13T10:53:30.045Z,73.50
2023-03-13T10:56:15.388Z,71.50
2023-03-13T10:58:46.578Z,69.40
2023-03-13T11:01:34.579Z,71.00
2023-03-13T11:04:39.685Z,69.30
2023-03-13T11:07:15.512Z,67.00
2023-03-13T11:09:43.038Z,73.40
2023-03-13T11:12:14.096Z,75.00
2023-03-13T11:19:53.696Z,72.90
2023-03-13T11:22:36.398Z,75.70
2023-03-13T11:25:17.408Z,74.70
2023-03-13T11:27:55.874Z,78.60
2023-03-13T11:30:52.060Z,76.70
2023-03-13T11:33:47.468Z,78.40
2023-03-13T11:36:20.609Z,76.40
2023-03-13T11:39:12.760Z,79.00
2023-03-13T11:41:50.659Z,78.40
2023-03-13T11:49:32.284Z,76.60
2023-03-13T11:52:27.855Z,76.00
2023-03-13T11:54:57.848Z,76.80
2023-03-13T11:57:42.716Z,77.40
2023-03-13T12:04:42.263Z,76.20
2023-03-13T12:07:21.971Z,73.10
2023-03-13T12:10:02.429Z,70.90
2023-03-13T12:12:35.446Z,69.80
2023-03-13T12:19:37.216Z,69.50
2023-03-13T12:22:16.758Z,70.50
2023-03-13T12:25:07.651Z,70.50
2023-03-13T12:27:36.612Z,71.20
2023-03-13T12:34:45.962Z,69.80
2023-03-13T12:37:30.947Z,68.10
2023-03-13T12:40:43.638Z,69.20
2023-03-13T12:43:34.437Z,69.40
2023-03-13T12:46:01.656Z,67.70
2023-03-13T12:48:37.460Z,65.40
2023-03-13T12:51:16.486Z,65.40
2023-03-13T12:54:11.279Z,64.50
2023-03-13T12:57:25.261Z,63.10
2023-03-13T13:00:00.355Z,62.30
2023-03-13T13:02:29.857Z,62.70
2023-03-13T13:05:00.449Z,62.30
2023-03-13T13:07:33.494Z,63.10
2023-03-13T13:10:12.847Z,62.70
2023-03-13T13:12:42.064Z,63.10
2023-03-13T13:15:25.809Z,63.10
2023-03-13T13:18:25.736Z,63.40
2023-03-13T13:21:07.813Z,64.40
2023-03-13T13:23:39.480Z,66.80
2023-03-13T13:26:31.109Z,66.60
2023-03-13T13:29:02.410Z,67.50
2023-03-13T13:36:09.629Z,68.10
2023-03-13T13:38:40.515Z,71.20
2023-03-13T13:41:10.634Z,75.50
2023-03-13T13:43:49.392Z,76.80
2023-03-13T13:46:33.325Z,83.10
2023-03-13T13:49:09.521Z,81.80
2023-03-13T13:52:04.504Z,86.70
2023-03-13T13:54:53.449Z,91.90
2023-03-13T13:57:23.342Z,93.40
2023-03-13T13:59:55.698Z,99.90
2023-03-13T14:02:25.742Z,99.90
2023-03-13T14:05:06.036Z,99.90
2023-03-13T14:07:45.278Z,99.90
2023-03-13T14:10:30.892Z,99.90
2023-03-13T14:13:00.192Z,99.90
2023-03-13T14:15:30.075Z,99.90
2023-03-13T14:18:09.010Z,99.90
2023-03-13T14:20:56.640Z,99.90
2023-03-13T14:23:35.783Z,99.90
2023-03-13T14:26:20.287Z,99.90
2023-03-13T14:28:52.845Z,99.90
2023-03-13T14:35:47.615Z,99.90
2023-03-13T14:38:23.828Z,99.90
2023-03-13T14:40:53.238Z,99.90
2023-03-13T14:43:41.084Z,99.90
2023-03-13T14:46:22.595Z,99.90
2023-03-13T14:48:49.838Z,99.90
2023-03-13T14:51:27.962Z,99.90
2023-03-13T14:53:58.843Z,99.90
2023-03-13T14:56:34.003Z,99.90
2023-03-13T14:59:17.624Z,99.90
2023-03-13T15:06:16.034Z,99.90
2023-03-13T15:08:45.795Z,99.90
2023-03-13T15:11:22.612Z,99.90
2023-03-13T15:13:49.754Z,99.90
2023-03-13T15:16:23.029Z,99.90
2023-03-13T15:18:51.805Z,99.90
2023-03-13T15:21:34.151Z,99.90
2023-03-13T15:24:10.825Z,99.90
2023-03-13T15:26:38.229Z,99.90
2023-03-13T15:29:05.237Z,99.90
2023-03-13T15:31:32.544Z,99.90
2023-03-13T15:34:01.104Z,99.90
2023-03-13T15:36:29.666Z,99.90
2023-03-13T15:38:56.799Z,99.90
2023-03-13T15:41:24.312Z,99.90
2023-03-13T15:43:55.917Z,99.90
2023-03-13T15:46:33.475Z,99.90
2023-03-13T15:49:00.614Z,99.90
2023-03-13T15:51:27.942Z,99.90
2023-03-13T15:53:54.948Z,99.90
2023-03-13T15:56:23.445Z,99.90
2023-03-13T15:58:51.245Z,99.90
2023-03-13T16:01:19.315Z,99.90
2023-03-13T16:03:46.595Z,99.90
2023-03-13T16:06:28.389Z,99.90
2023-03-13T16:09:02.126Z,99.90
2023-03-13T16:11:29.799Z,99.90
2023-03-13T16:13:57.626Z,99.90
2023-03-13T16:16:30.607Z,99.90
2023-03-13T16:18:58.935Z,99.90
2023-03-13T16:21:33.006Z,99.90
2023-03-13T16:24:00.470Z,99.90
2023-03-13T16:26:29.976Z,99.90
2023-03-13T16:28:57.985Z,99.90
2023-03-13T16:31:31.232Z,99.90
2023-03-13T16:33:59.843Z,99.90
2023-03-13T16:36:34.225Z,99.90
2023-03-13T16:39:04.179Z,99.90
2023-03-13T16:41:32.847Z,99.90
2023-03-13T16:43:59.963Z,99.90
2023-03-13T16:46:55.664Z,99.90
2023-03-13T16:49:26.556Z,99.90
2023-03-13T16:51:54.584Z,99.90
2023-03-13T16:54:21.919Z,99.90
2023-03-13T16:56:48.888Z,99.90
2023-03-13T16:59:19.196Z,99.90
2023-03-13T17:01:47.264Z,99.90
2023-03-13T17:04:14.562Z,99.90
2023-03-13T17:06:44.762Z,99.90
2023-03-13T17:09:15.692Z,99.90
2023-03-13T17:11:43.899Z,99.90
2023-03-13T17:14:11.335Z,99.90
2023-03-13T17:16:46.041Z,99.90
2023-03-13T17:19:14.662Z,99.90
2023-03-13T17:21:41.811Z,99.90
2023-03-13T17:24:09.277Z,99.90
2023-03-13T17:26:39.281Z,99.90
2023-03-13T17:29:08.002Z,99.90
2023-03-13T17:31:39.582Z,99.90
2023-03-13T17:34:08.467Z,99.90
2023-03-13T17:36:37.184Z,99.90
2023-03-13T17:39:06.786Z,99.90
2023-03-13T17:41:35.183Z,99.90
2023-03-13T17:44:04.027Z,99.90
2023-03-13T17:46:38.230Z,99.90
2023-03-13T17:49:06.088Z,99.90
2023-03-13T17:51:34.260Z,99.90
2023-03-13T17:54:01.971Z,99.90
2023-03-13T17:56:37.562Z,99.90
2023-03-13T17:59:15.541Z,99.90
2023-03-13T18:01:43.466Z,99.90
2023-03-13T18:04:11.627Z,99.90
2023-03-13T18:06:44.290Z,99.90
2023-03-13T18:09:20.809Z,99.90
2023-03-13T18:11:48.980Z,99.90
2023-03-13T18:14:16.011Z,99.90
2023-03-13T18:16:48.072Z,99.90
2023-03-13T18:19:17.750Z,99.90
2023-03-13T18:21:46.743Z,99.90
2023-03-13T18:24:14.535Z,99.90
2023-03-13T18:26:44.603Z,99.90
2023-03-13T18:29:21.452Z,99.90
2023-03-13T18:31:48.742Z,99.90
2023-03-13T18:34:15.942Z,99.90
2023-03-13T18:36:43.072Z,99.90
2023-03-13T18:39:14.678Z,99.90
2023-03-13T18:41:41.757Z,99.90
2023-03-13T18:44:08.794Z,99.90
2023-03-13T18:46:36.167Z,99.90
2023-03-13T18:49:04.069Z,99.90
2023-03-13T18:56:06.564Z,99.90
2023-03-13T18:58:33.703Z,99.90
2023-03-13T19:01:00.811Z,99.90
2023-03-13T19:03:27.802Z,99.90
2023-03-13T19:10:24.424Z,99.90
2023-03-13T19:12:52.539Z,99.90
2023-03-13T19:15:19.814Z,99.90
2023-03-13T19:17:46.846Z,99.90
2023-03-13T19:24:45.574Z,99.90
2023-03-13T19:27:14.871Z,99.90
2023-03-13T19:29:42.149Z,99.90
2023-03-13T19:32:17.759Z,99.90
2023-03-13T19:39:23.665Z,99.90
2023-03-13T19:41:51.653Z,99.90
2023-03-13T19:44:20.155Z,99.90
2023-03-13T19:46:47.677Z,99.90
2023-03-13T19:49:17.664Z,99.90
2023-03-13T19:51:45.061Z,99.90
2023-03-13T19:54:16.142Z,99.90
2023-03-13T19:56:45.983Z,99.90
2023-03-13T19:59:26.697Z,99.90
2023-03-13T20:01:55.892Z,99.90
2023-03-13T20:04:25.161Z,99.90
2023-03-13T20:06:52.245Z,99.90
2023-03-13T20:09:24.189Z,99.90
2023-03-13T20:11:51.575Z,99.90
2023-03-13T20:14:19.188Z,99.90
2023-03-13T20:16:48.935Z,99.90
2023-03-13T20:19:16.354Z,99.90
2023-03-13T20:21:44.137Z,99.90
2023-03-13T20:24:11.141Z,99.90
2023-03-13T20:26:38.776Z,99.90
2023-03-13T20:29:05.822Z,99.90
2023-03-13T20:31:33.250Z,99.90
2023-03-13T20:34:00.707Z,99.90
2023-03-13T20:36:28.064Z,99.90
2023-03-13T20:38:55.365Z,99.90
2023-03-13T20:41:25.828Z,99.90
2023-03-13T20:43:53.413Z,99.90
2023-03-13T20:46:20.859Z,99.90
2023-03-13T20:48:48.169Z,99.90
2023-03-13T20:51:15.249Z,99.90
2023-03-13T20:53:43.299Z,99.90
2023-03-13T20:56:11.703Z,99.90
2023-03-13T20:58:39.586Z,99.90
2023-03-13T21:01:08.360Z,99.90
2023-03-13T21:03:36.331Z,99.90
2023-03-13T21:06:09.637Z,99.90
2023-03-13T21:08:38.626Z,99.90
2023-03-13T21:11:18.073Z,99.90
2023-03-13T21:13:45.698Z,99.90
2023-03-13T21:16:13.797Z,99.90
2023-03-13T21:18:41.084Z,99.90
2023-03-13T21:21:12.306Z,99.90
2023-03-13T21:23:39.425Z,99.90
2023-03-13T21:26:06.664Z,99.90
2023-03-13T21:28:33.763Z,99.90
2023-03-13T21:31:11.626Z,99.90
2023-03-13T21:33:39.586Z,99.90
2023-03-13T21:36:07.115Z,99.90
2023-03-13T21:38:35.071Z,99.90
2023-03-13T21:41:08.693Z,99.90
2023-03-13T21:43:37.451Z,99.90
2023-03-13T21:46:04.792Z,99.90
2023-03-13T21:48:31.970Z,99.90
2023-03-13T21:50:59.170Z,99.90
2023-03-13T21:57:55.746Z,99.90
2023-03-13T22:00:23.517Z,99.90
2023-03-13T22:02:50.776Z,99.90
2023-03-13T22:05:17.955Z,99.90
2023-03-13T22:12:13.890Z,99.90
2023-03-13T22:14:41.130Z,99.90
2023-03-13T22:17:08.741Z,99.90
2023-03-13T22:19:35.865Z,99.90
2023-03-13T22:26:35.998Z,99.90
2023-03-13T22:29:03.493Z,99.90
2023-03-13T22:31:30.729Z,99.90
2023-03-13T22:33:58.263Z,99.90
2023-03-13T22:36:25.524Z,99.90
2023-03-13T22:38:52.710Z,99.90
2023-03-13T22:41:20.057Z,99.90
2023-03-13T22:43:47.036Z,99.90
2023-03-13T22:46:14.832Z,99.90
2023-03-13T22:48:42.076Z,99.90
2023-03-13T22:51:11.463Z,99.90
2023-03-13T22:53:40.361Z,99.90
2023-03-13T22:56:12.148Z,99.90
2023-03-13T22:58:40.694Z,99.90
2023-03-13T23:01:18.374Z,99.90
2023-03-13T23:03:45.896Z,99.90
2023-03-13T23:06:18.034Z,99.90
2023-03-13T23:08:45.376Z,99.90
2023-03-13T23:11:12.815Z,99.90
2023-03-13T23:13:39.882Z,99.90
2023-03-13T23:16:09.429Z,99.90
2023-03-13T23:18:37.304Z,99.90
2023-03-13T23:21:15.218Z,99.90
2023-03-13T23:23:43.373Z,99.90
2023-03-13T23:26:14.044Z,99.90
2023-03-13T23:28:41.572Z,99.90
2023-03-13T23:31:14.663Z,99.90
2023-03-13T23:33:41.913Z,99.90
2023-03-13T23:36:12.407Z,99.90
2023-03-13T23:38:39.722Z,99.90
2023-03-13T23:41:12.133Z,99.90
2023-03-13T23:43:39.829Z,99.90
2023-03-13T23:46:14.864Z,99.90
2023-03-13T23:48:42.079Z,99.90
2023-03-13T23:51:09.377Z,99.90
2023-03-13T23:53:37.969Z,99.90
2023-03-13T23:56:06.620Z,99.90
2023-03-13T23:58:34.536Z,99.90
